• Join FlightAware (Why Join?)
  • Login
  • US Flag 
07:20PM EDT


 

Airport Tracker/Info


-or-


 

Live Flight TrackerFlight Track Log ✈ JBU56 ✈ 06-Jun-2013 ✈ KJFK - KBTV

Flight Track Log - Related Links

Times and Time Zones

All times are in EDT time to prevent confusion due to time zone crossing. See the JBU56 flight status page for this flight to view local times or setup timezone preferences in your user account.

Time Position Orientation Groundspeed Altitude Reporting Facility
EDT Latitude Longitude Course Direction KTS MPH feet Rate Location/Type
10:07AM 40.6000 -73.8000 14° North 153 176 1,700  Level New York TRACON
10:08AM 40.5500 -73.8167 194° South 223 257 3,600 2,460 Climbing New York TRACON
10:09AM 40.8892 -73.6304 21° North  Level FlightAware Approximate
10:09AM 40.5667 -73.7333 75° East 276 318 6,700  Level New York TRACON
10:10AM 40.9806 -73.5847 21° North  Level FlightAware Approximate
10:10AM 40.6333 -73.6500 43° Northeast 300 345 9,900  Level New York TRACON
10:11AM 41.0695 -73.5315 27° Northeast  Level FlightAware Approximate
10:11AM 40.7000 -73.5667 43° Northeast 357 411 11,800  Level New York TRACON
10:12AM 41.1567 -73.4733 27° Northeast  Level FlightAware Approximate
10:12AM 40.8000 -73.5333 14° North 383 441 14,400  Level New York TRACON
10:13AM 41.2391 -73.4370 14° North  Level FlightAware Approximate
10:13AM 40.9167 -73.5167 North 389 448 16,900  Level New York TRACON
10:16AM 41.1472 -73.4711 North 401 461 17,900 660 Climbing Boston Center
10:17AM 41.2247 -73.4364 19° North 401 461 19,200 1,500 Climbing Boston Center
10:18AM 41.3608 -73.3803 17° North 407 468 21,000 600 Climbing Boston Center
10:20AM 41.5878 -73.3753 North 405 466 21,000  Level Boston Center
10:21AM 41.7025 -73.3744 360° North 405 466 21,000  Level Boston Center
10:22AM 41.8256 -73.3706 North 400 460 21,000  Level Boston Center
10:23AM 41.9403 -73.3694 360° North 400 460 21,000  Level Boston Center
10:24AM 42.0547 -73.3683 360° North 400 460 21,000  Level Boston Center
10:25AM 42.1611 -73.3586 North 411 473 21,000  Level Boston Center
10:26AM 42.2736 -73.3603 359° North 401 461 21,000  Level Boston Center
10:27AM 42.3967 -73.3622 359° North 401 461 21,000  Level Boston Center
10:28AM 42.5114 -73.3556 North 406 467 21,000  Level Boston Center
10:29AM 42.6281 -73.3572 359° North 406 467 21,000  Level Boston Center
10:30AM 42.7406 -73.3531 North 406 467 21,000  Level Boston Center
10:31AM 42.8322 -73.3517 North 406 467 21,000  Level Boston Center
10:32AM 42.9678 -73.3453 North 406 467 21,000  Level Boston Center
10:33AM 43.0847 -73.3356 North 406 467 21,000  Level Boston Center
10:34AM 43.1972 -73.3231 North 406 467 21,000  Level Boston Center
10:35AM 43.3100 -73.3103 North 406 467 21,000 -360 Level Boston Center
10:36AM 43.4225 -73.2978 North 406 467 20,300 -1,560 Descending Boston Center
10:37AM 43.5353 -73.2850 North 406 467 17,900 -2,460 Descending Boston Center
10:38AM 43.6436 -73.2722 North 406 467 15,400 -2,400 Descending Boston Center
10:39AM 43.7458 -73.2619 North 384 442 13,100 -2,100 Descending Boston Center
10:40AM 43.8250 -73.2517 North 372 428 11,200 -1,080 Descending Boston Center
10:41AM 43.9231 -73.2386 North 332 382 11,000 -120 Descending Boston Center
10:42AM 44.0044 -73.2281 North 299 344 11,000 -480 Level Boston Center
10:43AM 44.0814 -73.2522 347° North 283 326 10,100 -1,440 Descending Boston Center
10:44AM 44.1561 -73.2850 343° North 283 326 8,200 -1,800 Descending Boston Center
10:45AM 44.2372 -73.2919 356° North 288 331 6,600 -1,140 Descending Boston Center
10:46AM 44.3144 -73.2989 356° North 282 325 6,000 -780 Descending Boston Center
10:47AM 44.3831 -73.3056 356° North 255 293 5,100 -1,020 Descending Boston Center
10:48AM 44.4392 -73.3211 349° North 226 260 4,000 -1,140 Descending Boston Center
10:49AM 44.4953 -73.3306 353° North 205 236 2,900 -900 Descending Boston Center
10:50AM 44.5247 -73.2931 42° Northeast 146 168 2,200 -660 Descending Boston Center
10:51AM 44.5231 -73.2378 92° East 110 127 1,600 -660 Descending Boston Center
10:52AM 44.5006 -73.1997 130° Southeast 106 122 900 -720 Descending Boston Center